Rio Tala, Argentina
Current Conditions -  °F | °C
As of 12:00 PM on Saturday 22 Nov 2014 (Local Time) from SADF Reporting Station
Broken Clouds Broken Clouds  
Wind Chill: 68°   Ceiling: 2500
Heat Index: 68°   Visibility: 6mi
Dew Point: 54°   Wind: 13mph
Humidity: 60%   Direction: 200°SSW
Pressure: 29.94"   Gusts: NA
Location:  33.76°S, 59.65°W
Report Text: SADF 221500Z 20011KT 9999 BKN025 20/12 Q1014
Loading
Personal Weather Stations






























Interactive Weather Map New forecast layout! Learn more

10-Day Weather Forecast

Advertisements
Track Severe Weather on mobile